createdAt,value
2024-05-09T00:00:39.173Z,99.90
2024-05-09T00:03:08.407Z,99.90
2024-05-09T00:05:37.005Z,99.90
2024-05-09T00:08:04.674Z,99.90
2024-05-09T00:10:36.528Z,99.90
2024-05-09T00:13:06.523Z,99.90
2024-05-09T00:15:34.159Z,99.90
2024-05-09T00:18:02.134Z,99.90
2024-05-09T00:20:37.323Z,99.90
2024-05-09T00:23:07.868Z,99.90
2024-05-09T00:25:35.556Z,99.90
2024-05-09T00:28:02.764Z,99.90
2024-05-09T00:30:34.511Z,99.90
2024-05-09T00:33:05.155Z,99.90
2024-05-09T00:35:33.071Z,99.90
2024-05-09T00:38:00.114Z,99.90
2024-05-09T00:40:37.299Z,99.90
2024-05-09T00:43:07.226Z,99.90
2024-05-09T00:45:35.138Z,99.90
2024-05-09T00:48:06.757Z,99.90
2024-05-09T00:50:37.414Z,99.90
2024-05-09T00:53:10.887Z,99.90
2024-05-09T00:55:38.853Z,99.90
2024-05-09T00:58:07.601Z,99.90
2024-05-09T01:00:39.241Z,99.90
2024-05-09T01:03:13.158Z,99.90
2024-05-09T01:05:42.327Z,99.90
2024-05-09T01:08:10.491Z,99.90
2024-05-09T01:10:38.024Z,99.90
2024-05-09T01:13:05.556Z,99.90
2024-05-09T01:15:33.248Z,99.90
2024-05-09T01:18:07.305Z,99.90
2024-05-09T01:20:41.273Z,99.90
2024-05-09T01:23:11.202Z,99.90
2024-05-09T01:25:38.290Z,99.90
2024-05-09T01:28:06.158Z,99.90
2024-05-09T01:30:35.822Z,99.90
2024-05-09T01:33:06.595Z,99.90
2024-05-09T01:35:35.104Z,99.90
2024-05-09T01:38:02.186Z,99.90
2024-05-09T01:40:36.715Z,99.90
2024-05-09T01:43:06.586Z,99.90
2024-05-09T01:45:33.452Z,99.90
2024-05-09T01:48:00.913Z,99.90
2024-05-09T01:50:37.551Z,99.90
2024-05-09T01:53:12.511Z,99.90
2024-05-09T01:55:39.942Z,99.90
2024-05-09T01:58:07.416Z,99.90
2024-05-09T02:00:40.063Z,99.90
2024-05-09T02:03:12.351Z,99.90
2024-05-09T02:05:42.837Z,99.90
2024-05-09T02:08:17.560Z,99.90
2024-05-09T02:10:45.378Z,99.90
2024-05-09T02:13:13.286Z,99.90
2024-05-09T02:15:40.171Z,99.90
2024-05-09T02:18:08.168Z,99.90
2024-05-09T02:20:39.131Z,99.90
2024-05-09T02:23:06.952Z,99.90
2024-05-09T02:25:34.333Z,99.90
2024-05-09T02:28:01.742Z,99.90
2024-05-09T02:32:58.386Z,99.90
2024-05-09T02:35:26.540Z,99.90
2024-05-09T02:37:53.473Z,99.90
2024-05-09T02:40:25.746Z,99.90
2024-05-09T02:43:01.043Z,99.90
2024-05-09T02:45:27.808Z,99.90
2024-05-09T02:47:54.858Z,99.90
2024-05-09T02:50:29.844Z,99.90
2024-05-09T02:53:03.796Z,99.90
2024-05-09T02:55:30.585Z,99.90
2024-05-09T02:57:57.390Z,99.90
2024-05-09T03:00:30.078Z,99.90
2024-05-09T03:03:05.227Z,99.90
2024-05-09T03:05:32.324Z,99.90
2024-05-09T03:07:59.434Z,99.90
2024-05-09T03:10:28.972Z,99.90
2024-05-09T03:13:06.146Z,99.90
2024-05-09T03:15:33.215Z,99.90
2024-05-09T03:18:01.030Z,99.90
2024-05-09T03:20:33.535Z,99.90
2024-05-09T03:23:02.580Z,99.90
2024-05-09T03:25:29.674Z,99.90
2024-05-09T03:27:56.531Z,99.90
2024-05-09T03:30:35.843Z,99.90
2024-05-09T03:33:16.792Z,99.90
2024-05-09T03:35:44.374Z,99.90
2024-05-09T03:38:11.295Z,99.90
2024-05-09T03:40:48.737Z,99.90
2024-05-09T03:43:16.721Z,99.90
2024-05-09T03:45:43.771Z,99.90
2024-05-09T03:48:10.913Z,99.90
2024-05-09T03:50:38.174Z,99.90
2024-05-09T03:53:05.612Z,99.90
2024-05-09T03:55:32.468Z,99.90
2024-05-09T03:57:59.493Z,99.90
2024-05-09T04:00:34.993Z,99.90
2024-05-09T04:03:08.474Z,99.90
2024-05-09T04:05:39.572Z,99.90
2024-05-09T04:08:06.936Z,99.90
2024-05-09T04:10:35.040Z,99.90
2024-05-09T04:13:03.456Z,99.90
2024-05-09T04:15:30.792Z,99.90
2024-05-09T04:17:57.968Z,99.90
2024-05-09T04:20:35.820Z,99.90
2024-05-09T04:23:07.506Z,99.90
2024-05-09T04:25:35.150Z,99.90
2024-05-09T04:28:01.959Z,99.90
2024-05-09T04:30:37.526Z,99.90
2024-05-09T04:33:09.265Z,99.90
2024-05-09T04:35:38.555Z,99.90
2024-05-09T04:38:06.170Z,99.90
2024-05-09T04:40:36.039Z,99.90
2024-05-09T04:43:05.282Z,99.90
2024-05-09T04:45:32.413Z,99.90
2024-05-09T04:47:59.764Z,99.90
2024-05-09T04:50:35.517Z,99.90
2024-05-09T04:53:06.217Z,99.90
2024-05-09T04:55:33.817Z,99.90
2024-05-09T04:58:01.095Z,99.90
2024-05-09T05:00:35.508Z,99.90
2024-05-09T05:03:07.049Z,99.90
2024-05-09T05:05:37.565Z,99.90
2024-05-09T05:08:04.776Z,99.90
2024-05-09T05:10:36.062Z,99.90
2024-05-09T05:13:17.979Z,99.90
2024-05-09T05:15:55.234Z,99.90
2024-05-09T05:18:22.608Z,99.90
2024-05-09T05:20:49.727Z,99.90
2024-05-09T05:23:19.776Z,99.90
2024-05-09T05:25:48.521Z,99.90
2024-05-09T05:28:19.312Z,99.90
2024-05-09T05:30:46.519Z,99.90
2024-05-09T05:33:15.015Z,99.90
2024-05-09T05:35:42.798Z,99.90
2024-05-09T05:38:10.794Z,99.90
2024-05-09T05:40:38.983Z,99.90
2024-05-09T05:43:10.939Z,99.90
2024-05-09T05:45:38.607Z,99.90
2024-05-09T05:48:07.245Z,99.90
2024-05-09T05:50:37.207Z,99.90
2024-05-09T05:53:09.683Z,99.90
2024-05-09T05:55:38.784Z,99.90
2024-05-09T05:58:05.692Z,99.90
2024-05-09T06:00:38.874Z,99.90
2024-05-09T06:03:09.070Z,99.90
2024-05-09T06:05:39.465Z,99.90
2024-05-09T06:08:07.063Z,99.90
2024-05-09T06:10:38.725Z,99.90
2024-05-09T06:13:08.896Z,99.90
2024-05-09T06:15:35.701Z,99.90
2024-05-09T06:18:06.218Z,99.90
2024-05-09T06:20:36.543Z,99.90
2024-05-09T06:23:09.011Z,99.90
2024-05-09T06:25:36.555Z,99.90
2024-05-09T06:28:03.927Z,99.90
2024-05-09T06:30:38.647Z,99.90
2024-05-09T06:33:09.754Z,99.90
2024-05-09T06:35:37.822Z,99.90
2024-05-09T06:38:05.150Z,99.90
2024-05-09T06:40:38.009Z,99.90
2024-05-09T06:43:17.886Z,99.90
2024-05-09T06:45:49.588Z,99.90
2024-05-09T06:48:19.129Z,99.90
2024-05-09T06:50:46.644Z,99.90
2024-05-09T06:53:17.206Z,99.90
2024-05-09T06:55:44.179Z,99.90
2024-05-09T06:58:10.997Z,99.90
2024-05-09T07:00:40.345Z,99.90
2024-05-09T07:03:15.546Z,99.90
2024-05-09T07:05:45.647Z,99.90
2024-05-09T07:08:13.282Z,99.90
2024-05-09T07:10:40.177Z,99.90
2024-05-09T07:13:14.177Z,99.90
2024-05-09T07:15:41.811Z,99.90
2024-05-09T07:18:12.983Z,99.90
2024-05-09T07:20:40.538Z,99.90
2024-05-09T07:23:09.806Z,99.90
2024-05-09T07:25:36.976Z,99.90
2024-05-09T07:28:04.009Z,99.90
2024-05-09T07:30:34.103Z,99.90
2024-05-09T07:33:03.065Z,99.90
2024-05-09T07:35:30.939Z,99.90
2024-05-09T07:37:58.268Z,99.90
2024-05-09T07:40:32.936Z,99.90
2024-05-09T07:43:08.101Z,99.90
2024-05-09T07:52:32.518Z,99.90
2024-05-09T07:53:39.652Z,99.90
2024-05-09T07:56:11.885Z,99.90
2024-05-09T07:58:39.291Z,99.90
2024-05-09T08:01:06.339Z,99.90
2024-05-09T08:03:33.572Z,99.90
2024-05-09T08:06:00.792Z,99.90
2024-05-09T08:08:27.607Z,99.90
2024-05-09T08:10:54.450Z,99.90
2024-05-09T08:13:21.439Z,99.90
2024-05-09T08:15:48.304Z,99.90
2024-05-09T08:18:15.304Z,99.90
2024-05-09T08:20:42.577Z,99.90
2024-05-09T08:23:10.930Z,99.90
2024-05-09T08:25:38.750Z,99.90
2024-05-09T08:28:05.913Z,99.90
2024-05-09T08:30:36.658Z,99.90
2024-05-09T08:33:06.367Z,99.90
2024-05-09T08:35:34.155Z,99.90
2024-05-09T08:38:03.237Z,99.90
2024-05-09T08:40:35.578Z,99.90
2024-05-09T08:43:08.169Z,99.90
2024-05-09T08:45:36.533Z,99.90
2024-05-09T08:48:07.764Z,99.90
2024-05-09T08:50:39.119Z,99.90
2024-05-09T08:53:07.652Z,99.90
2024-05-09T08:55:37.365Z,99.90
2024-05-09T08:58:09.637Z,99.90
2024-05-09T09:00:39.266Z,99.90
2024-05-09T09:03:09.862Z,99.90
2024-05-09T09:05:39.545Z,99.90
2024-05-09T09:08:08.326Z,99.90
2024-05-09T09:10:35.758Z,99.90
2024-05-09T09:13:04.900Z,99.90
2024-05-09T09:15:32.468Z,99.90
2024-05-09T09:18:01.035Z,99.90
2024-05-09T09:20:35.616Z,99.90
2024-05-09T09:23:04.723Z,99.90
2024-05-09T09:25:32.022Z,99.90
2024-05-09T09:27:59.180Z,99.90
2024-05-09T09:30:36.406Z,99.90
2024-05-09T09:33:06.512Z,99.90
2024-05-09T09:35:34.588Z,99.90
2024-05-09T09:38:03.398Z,99.90
2024-05-09T09:40:37.694Z,99.40
2024-05-09T09:43:19.949Z,99.70
2024-05-09T09:45:49.954Z,99.90
2024-05-09T09:48:17.234Z,98.70
2024-05-09T09:50:45.338Z,99.10
2024-05-09T09:53:13.875Z,98.60
2024-05-09T09:55:42.066Z,99.40
2024-05-09T09:58:13.426Z,98.60
2024-05-09T10:00:41.501Z,99.40
2024-05-09T10:03:08.633Z,98.70
2024-05-09T10:05:36.095Z,98.30
2024-05-09T10:08:05.668Z,98.90
2024-05-09T10:10:33.703Z,98.80
2024-05-09T10:13:07.051Z,98.90
2024-05-09T10:15:50.041Z,98.10
2024-05-09T10:18:17.122Z,98.80
2024-05-09T10:20:45.487Z,98.50
2024-05-09T10:23:25.969Z,97.50
2024-05-09T10:26:00.324Z,97.60
2024-05-09T10:28:28.437Z,98.00
2024-05-09T10:31:07.257Z,98.10
2024-05-09T10:34:02.450Z,98.30
2024-05-09T10:36:29.465Z,99.90
2024-05-09T10:38:56.368Z,97.30
2024-05-09T10:41:23.947Z,97.40
2024-05-09T10:43:51.852Z,96.80
2024-05-09T10:46:19.411Z,97.60
2024-05-09T10:48:47.982Z,97.60
2024-05-09T10:51:16.397Z,98.00
2024-05-09T10:53:44.964Z,98.00
2024-05-09T10:56:13.876Z,98.70
2024-05-09T10:58:40.710Z,99.10
2024-05-09T11:01:09.041Z,97.30
2024-05-09T11:03:37.022Z,97.60
2024-05-09T11:06:05.350Z,97.70
2024-05-09T11:08:33.045Z,97.30
2024-05-09T11:11:00.435Z,97.40
2024-05-09T11:13:35.208Z,98.70
2024-05-09T11:16:03.345Z,98.00
2024-05-09T11:18:35.320Z,97.00
2024-05-09T11:21:12.737Z,97.60
2024-05-09T11:23:40.273Z,98.60
2024-05-09T11:26:07.465Z,97.30
2024-05-09T11:28:34.306Z,98.70
2024-05-09T11:31:09.397Z,97.20
2024-05-09T11:33:38.783Z,97.70
2024-05-09T11:36:06.496Z,97.80
2024-05-09T11:38:33.671Z,96.70
2024-05-09T11:41:00.448Z,96.60
2024-05-09T11:43:27.262Z,97.10
2024-05-09T11:45:55.012Z,98.50
2024-05-09T11:48:22.062Z,98.00
2024-05-09T11:50:48.907Z,98.00
2024-05-09T11:53:15.683Z,97.50
2024-05-09T11:55:42.407Z,97.30
2024-05-09T11:58:09.354Z,97.00
2024-05-09T12:00:37.533Z,97.40
2024-05-09T12:03:05.973Z,97.40
2024-05-09T12:05:34.334Z,96.30
2024-05-09T12:08:01.707Z,96.90
2024-05-09T12:12:58.547Z,96.20
2024-05-09T12:15:25.372Z,96.90
2024-05-09T12:17:52.235Z,96.10
2024-05-09T12:20:28.340Z,96.40
2024-05-09T12:23:01.906Z,96.90
2024-05-09T12:25:28.706Z,96.90
2024-05-09T12:27:55.814Z,96.80
2024-05-09T12:30:32.756Z,96.60
2024-05-09T12:33:04.513Z,96.90
2024-05-09T12:35:31.798Z,96.60
2024-05-09T12:37:58.593Z,96.20
2024-05-09T12:40:34.323Z,96.20
2024-05-09T12:43:04.956Z,96.10
2024-05-09T12:45:32.182Z,96.10
2024-05-09T12:47:59.372Z,97.00
2024-05-09T12:50:32.386Z,96.80
2024-05-09T12:53:01.824Z,96.80
2024-05-09T12:55:33.864Z,96.80
2024-05-09T12:58:08.085Z,97.30
2024-05-09T13:00:35.302Z,96.90
2024-05-09T13:03:02.265Z,96.90
2024-05-09T13:05:29.797Z,96.60
2024-05-09T13:07:57.198Z,97.30
2024-05-09T13:10:31.600Z,96.60
2024-05-09T13:13:00.759Z,97.00
2024-05-09T13:15:28.335Z,96.90
2024-05-09T13:17:58.114Z,97.70
2024-05-09T13:20:32.764Z,96.50
2024-05-09T13:23:02.945Z,97.00
2024-05-09T13:25:29.837Z,97.40
2024-05-09T13:27:57.578Z,96.80
2024-05-09T13:30:34.939Z,96.90
2024-05-09T13:33:07.272Z,96.90
2024-05-09T13:35:35.483Z,96.80
2024-05-09T13:38:03.934Z,96.30
2024-05-09T13:40:34.566Z,97.00
2024-05-09T13:43:04.832Z,97.20
2024-05-09T13:45:32.432Z,97.30
2024-05-09T13:47:59.875Z,97.60
2024-05-09T13:50:33.445Z,98.70
2024-05-09T13:53:03.669Z,97.90
2024-05-09T13:55:30.571Z,97.30
2024-05-09T13:57:57.516Z,97.80
2024-05-09T14:02:54.427Z,97.50
2024-05-09T14:05:21.486Z,97.10
2024-05-09T14:07:48.827Z,97.60
2024-05-09T14:10:23.102Z,96.60
2024-05-09T14:12:55.449Z,97.10
2024-05-09T14:15:22.339Z,97.10
2024-05-09T14:17:49.232Z,96.60
2024-05-09T14:20:23.846Z,96.90
2024-05-09T14:22:57.508Z,96.90
2024-05-09T14:25:26.440Z,97.40
2024-05-09T14:27:53.746Z,97.20
2024-05-09T14:30:30.155Z,96.30
2024-05-09T14:33:02.832Z,97.10
2024-05-09T14:35:29.774Z,97.00
2024-05-09T14:37:56.860Z,97.10
2024-05-09T14:42:53.519Z,96.90
2024-05-09T14:45:20.380Z,96.90
2024-05-09T14:47:47.245Z,96.60
2024-05-09T14:50:23.536Z,97.30
2024-05-09T14:52:55.007Z,97.00
2024-05-09T14:55:21.902Z,96.80
2024-05-09T14:57:49.097Z,96.80
2024-05-09T15:00:24.787Z,96.70
2024-05-09T15:02:55.364Z,96.90
2024-05-09T15:05:22.233Z,96.70
2024-05-09T15:07:49.226Z,96.30
2024-05-09T15:10:23.844Z,97.30
2024-05-09T15:12:58.343Z,97.10
2024-05-09T15:15:25.204Z,97.30
2024-05-09T15:17:52.471Z,96.60
2024-05-09T15:20:27.627Z,96.80
2024-05-09T15:23:01.158Z,96.60
2024-05-09T15:25:28.027Z,97.20
2024-05-09T15:27:54.965Z,96.90
2024-05-09T15:30:29.541Z,96.90
2024-05-09T15:32:58.847Z,96.70
2024-05-09T15:35:25.615Z,96.70
2024-05-09T15:37:52.444Z,96.30
2024-05-09T15:40:26.813Z,97.20
2024-05-09T15:43:02.643Z,97.20
2024-05-09T15:45:29.697Z,96.60
2024-05-09T15:47:57.722Z,96.70
2024-05-09T15:50:35.824Z,97.00
2024-05-09T15:53:07.167Z,96.80
2024-05-09T15:55:34.961Z,97.30
2024-05-09T15:58:03.194Z,96.60
2024-05-09T16:00:37.828Z,96.60
2024-05-09T16:03:09.010Z,96.70
2024-05-09T16:05:36.612Z,97.10
2024-05-09T16:08:03.997Z,96.40
2024-05-09T16:10:33.186Z,96.10
2024-05-09T16:13:02.375Z,96.30
2024-05-09T16:15:30.058Z,96.70
2024-05-09T16:17:57.237Z,96.70
2024-05-09T16:22:54.387Z,97.40
2024-05-09T16:25:21.268Z,96.70
2024-05-09T16:27:48.334Z,97.50
2024-05-09T16:30:24.146Z,96.80
2024-05-09T16:32:55.899Z,97.40
2024-05-09T16:35:22.770Z,97.10
2024-05-09T16:37:50.085Z,97.70
2024-05-09T16:40:25.356Z,97.00
2024-05-09T16:43:03.478Z,97.50
2024-05-09T16:45:30.482Z,97.80
2024-05-09T16:47:57.691Z,98.10
2024-05-09T16:50:29.503Z,97.70
2024-05-09T16:52:59.968Z,97.70
2024-05-09T16:55:27.150Z,97.50
2024-05-09T16:57:55.404Z,97.40
2024-05-09T17:00:31.739Z,97.40
2024-05-09T17:03:07.300Z,97.70
2024-05-09T17:05:35.402Z,97.60
2024-05-09T17:08:02.834Z,97.30
2024-05-09T17:10:33.514Z,97.30
2024-05-09T17:13:03.584Z,97.00
2024-05-09T17:15:32.030Z,97.20
2024-05-09T17:17:59.258Z,97.20
2024-05-09T17:20:32.553Z,97.20
2024-05-09T17:23:03.772Z,97.50
2024-05-09T17:25:30.801Z,98.20
2024-05-09T17:28:05.027Z,97.50
2024-05-09T17:30:36.347Z,97.60
2024-05-09T17:33:07.097Z,97.60
2024-05-09T17:35:35.584Z,97.90
2024-05-09T17:38:02.515Z,97.60
2024-05-09T17:40:33.777Z,97.40
2024-05-09T17:43:04.479Z,97.50
2024-05-09T17:45:32.177Z,97.80
2024-05-09T17:47:59.847Z,97.80
2024-05-09T17:50:34.886Z,97.80
2024-05-09T17:53:04.166Z,97.70
2024-05-09T17:55:31.162Z,98.60
2024-05-09T17:57:58.424Z,99.10
2024-05-09T18:00:36.468Z,99.50
2024-05-09T18:03:07.562Z,99.30
2024-05-09T18:05:36.155Z,99.90
2024-05-09T18:08:03.774Z,99.90
2024-05-09T18:10:36.449Z,99.90
2024-05-09T18:13:06.903Z,99.90
2024-05-09T18:15:34.232Z,99.90
2024-05-09T18:18:02.841Z,99.90
2024-05-09T18:20:39.317Z,99.90
2024-05-09T18:23:10.964Z,99.90
2024-05-09T18:25:37.899Z,99.90
2024-05-09T18:28:05.659Z,99.90
2024-05-09T18:30:35.910Z,99.90
2024-05-09T18:33:05.973Z,99.90
2024-05-09T18:35:34.152Z,99.90
2024-05-09T18:38:01.022Z,99.90
2024-05-09T18:40:33.423Z,99.90
2024-05-09T18:43:04.659Z,99.90
2024-05-09T18:45:32.484Z,99.90
2024-05-09T18:47:59.566Z,99.90
2024-05-09T18:50:34.971Z,99.90
2024-05-09T18:53:09.956Z,99.90
2024-05-09T18:55:37.003Z,99.90
2024-05-09T18:58:05.032Z,99.90
2024-05-09T19:00:36.241Z,99.90
2024-05-09T19:03:12.187Z,99.90
2024-05-09T19:05:45.225Z,99.90
2024-05-09T19:08:13.158Z,99.90
2024-05-09T19:10:40.607Z,99.90
2024-05-09T19:13:11.838Z,99.90
2024-05-09T19:15:41.182Z,99.90
2024-05-09T19:18:09.494Z,99.90
2024-05-09T19:20:37.343Z,99.90
2024-05-09T19:23:05.893Z,99.90
2024-05-09T19:25:33.292Z,99.90
2024-05-09T19:28:00.900Z,99.90
2024-05-09T19:30:36.863Z,99.90
2024-05-09T19:33:08.060Z,99.90
2024-05-09T19:35:35.167Z,99.90
2024-05-09T19:38:02.318Z,99.90
2024-05-09T19:40:32.207Z,99.90
2024-05-09T19:43:02.592Z,99.90
2024-05-09T19:45:30.479Z,99.90
2024-05-09T19:47:57.625Z,99.90
2024-05-09T19:50:32.466Z,99.90
2024-05-09T19:53:07.447Z,99.90
2024-05-09T19:55:34.595Z,99.90
2024-05-09T19:58:06.877Z,99.90
2024-05-09T20:00:36.920Z,99.90
2024-05-09T20:03:06.396Z,99.90
2024-05-09T20:05:34.083Z,99.90
2024-05-09T20:08:01.155Z,99.90
2024-05-09T20:10:32.486Z,99.90
2024-05-09T20:13:02.116Z,99.90
2024-05-09T20:15:29.252Z,99.90
2024-05-09T20:17:56.385Z,99.90
2024-05-09T20:20:33.388Z,99.90
2024-05-09T20:23:06.095Z,99.90
2024-05-09T20:25:32.996Z,99.90
2024-05-09T20:27:59.952Z,99.90
2024-05-09T20:30:32.064Z,99.90
2024-05-09T20:33:03.050Z,99.90
2024-05-09T20:35:34.023Z,99.90
2024-05-09T20:38:02.389Z,99.90
2024-05-09T20:40:34.179Z,99.90
2024-05-09T20:43:04.612Z,99.90
2024-05-09T20:45:31.711Z,99.90
2024-05-09T20:47:58.671Z,99.90
2024-05-09T20:50:35.756Z,99.90
2024-05-09T20:53:11.718Z,99.90
2024-05-09T20:55:39.739Z,99.90
2024-05-09T20:58:06.676Z,99.90
2024-05-09T21:00:39.902Z,99.90
2024-05-09T21:03:10.153Z,99.90
2024-05-09T21:05:37.358Z,99.90
2024-05-09T21:08:04.565Z,99.90
2024-05-09T21:10:33.069Z,99.90
2024-05-09T21:13:02.396Z,99.90
2024-05-09T21:15:29.932Z,99.90
2024-05-09T21:17:56.746Z,99.90
2024-05-09T21:20:30.493Z,99.90
2024-05-09T21:22:58.998Z,99.90
2024-05-09T21:25:25.897Z,99.90
2024-05-09T21:27:53.181Z,99.90
2024-05-09T21:30:31.537Z,99.90
2024-05-09T21:33:07.728Z,99.90
2024-05-09T21:35:34.702Z,99.90
2024-05-09T21:38:01.557Z,99.90
2024-05-09T21:40:34.196Z,99.90
2024-05-09T21:43:03.504Z,99.90
2024-05-09T21:45:30.490Z,99.90
2024-05-09T21:47:57.354Z,99.90
2024-05-09T21:50:32.160Z,99.90
2024-05-09T21:53:06.273Z,99.90
2024-05-09T21:55:33.345Z,99.90
2024-05-09T21:58:00.405Z,99.90
2024-05-09T22:00:34.739Z,99.90
2024-05-09T22:03:05.130Z,99.90
2024-05-09T22:05:32.398Z,99.90
2024-05-09T22:07:59.490Z,99.90
2024-05-09T22:10:31.182Z,99.90
2024-05-09T22:13:01.682Z,99.90
2024-05-09T22:15:28.665Z,99.90
2024-05-09T22:17:56.590Z,99.90
2024-05-09T22:20:32.950Z,99.90
2024-05-09T22:23:04.079Z,99.90
2024-05-09T22:25:32.137Z,99.90
2024-05-09T22:28:00.200Z,99.90
2024-05-09T22:30:35.555Z,99.90
2024-05-09T22:33:06.841Z,99.90
2024-05-09T22:35:33.807Z,99.90
2024-05-09T22:38:00.747Z,99.90
2024-05-09T22:40:38.429Z,99.90
2024-05-09T22:43:13.505Z,99.90
2024-05-09T22:45:40.735Z,99.90
2024-05-09T22:48:08.698Z,99.90
2024-05-09T22:50:36.020Z,99.90
2024-05-09T22:53:02.928Z,99.90
2024-05-09T22:55:30.059Z,99.90
2024-05-09T22:57:56.914Z,99.90
2024-05-09T23:02:53.533Z,99.90
2024-05-09T23:05:20.590Z,99.90
2024-05-09T23:07:47.444Z,99.90
2024-05-09T23:10:21.211Z,99.90
2024-05-09T23:12:54.849Z,99.90
2024-05-09T23:15:21.874Z,99.90
2024-05-09T23:17:48.828Z,99.90
2024-05-09T23:20:21.724Z,99.90
2024-05-09T23:22:55.772Z,99.90
2024-05-09T23:25:22.614Z,99.90
2024-05-09T23:27:49.422Z,99.90
2024-05-09T23:30:28.278Z,99.90
2024-05-09T23:33:01.415Z,99.90
2024-05-09T23:35:28.420Z,99.90
2024-05-09T23:37:55.483Z,99.90
2024-05-09T23:40:23.526Z,99.90
2024-05-09T23:42:50.915Z,99.90
2024-05-09T23:45:17.747Z,99.90
2024-05-09T23:47:44.809Z,99.90
2024-05-09T23:50:16.941Z,99.90
2024-05-09T23:52:50.470Z,99.90
2024-05-09T23:55:17.409Z,99.90
2024-05-09T23:57:44.459Z,99.90
